createdAt,value
2022-12-28T00:00:01.003Z,3
2022-12-28T00:01:09.543Z,3
2022-12-28T00:02:18.000Z,3
2022-12-28T00:03:26.226Z,3
2022-12-28T00:04:34.782Z,3.3
2022-12-28T00:05:43.121Z,3.3
2022-12-28T00:06:51.477Z,3.3
2022-12-28T00:07:59.996Z,3.8
2022-12-28T00:09:08.338Z,3.8
2022-12-28T00:10:16.716Z,3.8
2022-12-28T00:11:26.697Z,3.5
2022-12-28T00:12:33.580Z,3.5
2022-12-28T00:13:41.916Z,3.5
2022-12-28T00:14:50.471Z,4.8
2022-12-28T00:15:58.851Z,4.8
2022-12-28T00:17:07.160Z,4.8
2022-12-28T00:18:15.696Z,4.8
2022-12-28T00:19:24.038Z,4.8
2022-12-28T00:20:32.368Z,4.8
2022-12-28T00:21:41.019Z,5
2022-12-28T00:22:49.340Z,5
2022-12-28T00:23:57.883Z,5
2022-12-28T00:25:06.222Z,4.8
2022-12-28T00:26:14.548Z,4.8
2022-12-28T00:27:22.869Z,4.8
2022-12-28T00:28:31.412Z,4.9
2022-12-28T00:29:39.783Z,4.9
2022-12-28T00:30:48.131Z,4.9
2022-12-28T00:31:56.733Z,4.9
2022-12-28T00:33:05.022Z,4.9
2022-12-28T00:34:13.355Z,4.9
2022-12-28T00:35:21.909Z,4.6
2022-12-28T00:37:07.717Z,4.6
2022-12-28T00:37:38.594Z,4.6
2022-12-28T00:38:47.155Z,4.3
2022-12-28T00:39:55.480Z,4.3
2022-12-28T00:41:03.815Z,4.3
2022-12-28T00:42:12.383Z,4.2
2022-12-28T00:43:20.726Z,4.2
2022-12-28T00:44:29.079Z,4.2
2022-12-28T00:45:37.678Z,4.6
2022-12-28T00:46:45.977Z,4.6
2022-12-28T00:47:54.316Z,4.6
2022-12-28T00:49:02.898Z,3.9
2022-12-28T00:50:11.209Z,3.9
2022-12-28T00:51:19.541Z,3.9
2022-12-28T00:52:28.085Z,4.4
2022-12-28T00:53:36.400Z,4.4
2022-12-28T00:54:44.760Z,4.4
2022-12-28T00:55:53.277Z,4.8
2022-12-28T00:57:01.614Z,4.8
2022-12-28T00:58:09.942Z,4.8
2022-12-28T00:59:18.489Z,4.2
2022-12-28T01:00:26.828Z,4.2
2022-12-28T01:01:35.257Z,4.2
2022-12-28T01:02:43.748Z,4.2
2022-12-28T01:03:52.048Z,4.2
2022-12-28T01:05:00.396Z,4.2
2022-12-28T01:06:08.943Z,4.5
2022-12-28T01:07:17.266Z,4.5
2022-12-28T01:08:25.611Z,4.5
2022-12-28T01:09:34.182Z,4.4
2022-12-28T01:10:42.574Z,4.4
2022-12-28T01:11:50.861Z,4.4
2022-12-28T01:12:59.380Z,4.2
2022-12-28T01:14:07.715Z,4.2
2022-12-28T01:15:16.066Z,4.2
2022-12-28T01:16:24.621Z,4.7
2022-12-28T01:17:32.932Z,4.7
2022-12-28T01:18:41.241Z,4.7
2022-12-28T01:19:53.863Z,4
2022-12-28T01:20:58.107Z,4
2022-12-28T01:22:06.454Z,4
2022-12-28T01:23:14.989Z,4.1
2022-12-28T01:24:23.305Z,4.1
2022-12-28T01:25:31.657Z,4.1
2022-12-28T01:26:40.223Z,4
2022-12-28T01:27:48.527Z,4
2022-12-28T01:28:56.865Z,4
2022-12-28T01:30:05.401Z,3.5
2022-12-28T01:31:13.730Z,3.5
2022-12-28T01:32:22.065Z,3.5
2022-12-28T01:33:30.613Z,3.8
2022-12-28T01:34:38.949Z,3.8
2022-12-28T01:35:47.275Z,3.8
2022-12-28T01:36:55.807Z,3.8
2022-12-28T01:38:04.141Z,3.8
2022-12-28T01:39:12.482Z,3.8
2022-12-28T01:40:21.021Z,4.2
2022-12-28T01:41:29.361Z,4.2
2022-12-28T01:42:37.730Z,4.2
2022-12-28T01:43:46.260Z,4.4
2022-12-28T01:44:54.593Z,4.4
2022-12-28T01:46:02.958Z,4.4
2022-12-28T01:47:11.481Z,4
2022-12-28T01:48:19.821Z,4
2022-12-28T01:49:28.161Z,4
2022-12-28T01:50:36.713Z,4
2022-12-28T01:51:45.068Z,4
2022-12-28T01:52:53.382Z,4
2022-12-28T01:54:01.915Z,3.9
2022-12-28T01:55:10.265Z,3.9
2022-12-28T01:56:18.600Z,3.9
2022-12-28T01:57:27.145Z,3.8
2022-12-28T01:58:35.545Z,3.8
2022-12-28T01:59:43.815Z,3.8
2022-12-28T02:00:52.423Z,3.4
2022-12-28T02:02:00.907Z,3.4
2022-12-28T02:03:09.159Z,3.4
2022-12-28T02:04:17.583Z,3.6
2022-12-28T02:05:25.919Z,3.6
2022-12-28T02:06:34.251Z,3.6
2022-12-28T02:07:42.800Z,3.4
2022-12-28T02:08:51.142Z,3.4
2022-12-28T02:10:40.261Z,3.4
2022-12-28T02:11:08.044Z,3.2
2022-12-28T02:12:16.361Z,3.2
2022-12-28T02:13:24.712Z,3.2
2022-12-28T02:14:33.277Z,3.1
2022-12-28T02:15:41.620Z,3.1
2022-12-28T02:16:50.017Z,3.1
2022-12-28T02:17:58.488Z,2.5
2022-12-28T02:19:06.852Z,2.5
2022-12-28T02:20:15.192Z,2.5
2022-12-28T02:21:23.743Z,3
2022-12-28T02:22:32.086Z,3
2022-12-28T02:23:40.399Z,3
2022-12-28T02:24:48.945Z,2.8
2022-12-28T02:25:57.267Z,2.8
2022-12-28T02:27:05.610Z,2.8
2022-12-28T02:28:14.161Z,2.9
2022-12-28T02:29:22.485Z,2.9
2022-12-28T02:30:30.925Z,2.9
2022-12-28T02:31:39.376Z,3.4
2022-12-28T02:32:47.715Z,3.4
2022-12-28T02:33:56.030Z,3.4
2022-12-28T02:35:04.606Z,3.3
2022-12-28T02:36:18.073Z,3.3
2022-12-28T02:37:21.241Z,3.3
2022-12-28T02:38:29.775Z,3.4
2022-12-28T02:39:38.157Z,3.4
2022-12-28T02:40:46.486Z,3.4
2022-12-28T02:41:55.015Z,3.3
2022-12-28T02:43:03.337Z,3.3
2022-12-28T02:44:11.660Z,3.3
2022-12-28T02:45:20.214Z,3.3
2022-12-28T02:46:28.628Z,3.3
2022-12-28T02:47:36.890Z,3.3
2022-12-28T02:48:45.464Z,3.6
2022-12-28T02:49:53.790Z,3.6
2022-12-28T02:51:02.119Z,3.6
2022-12-28T02:52:10.654Z,3.2
2022-12-28T02:53:19.000Z,3.2
2022-12-28T02:54:27.331Z,3.2
2022-12-28T02:55:35.913Z,3
2022-12-28T02:56:44.261Z,3
2022-12-28T02:57:52.603Z,3
2022-12-28T02:59:01.159Z,2.7
2022-12-28T03:00:09.501Z,2.7
2022-12-28T03:01:17.917Z,2.7
2022-12-28T03:02:26.571Z,2.5
2022-12-28T03:03:34.718Z,2.5
2022-12-28T03:04:43.071Z,2.5
2022-12-28T03:05:51.624Z,2.3
2022-12-28T03:06:59.966Z,2.3
2022-12-28T03:08:08.293Z,2.3
2022-12-28T03:09:16.875Z,1.9
2022-12-28T03:10:25.226Z,1.9
2022-12-28T03:11:33.555Z,1.9
2022-12-28T03:12:42.115Z,2
2022-12-28T03:13:50.449Z,2
2022-12-28T03:14:58.789Z,2
2022-12-28T03:16:07.439Z,1.9
2022-12-28T03:17:15.665Z,1.9
2022-12-28T03:18:24.029Z,1.9
2022-12-28T03:19:32.557Z,1.7
2022-12-28T03:20:40.895Z,1.7
2022-12-28T03:21:49.234Z,1.7
2022-12-28T03:22:57.771Z,1.9
2022-12-28T03:24:06.086Z,1.9
2022-12-28T03:25:14.422Z,1.9
2022-12-28T03:26:22.957Z,1.8
2022-12-28T03:27:31.300Z,1.8
2022-12-28T03:28:39.631Z,1.8
2022-12-28T03:29:48.159Z,2.1
2022-12-28T03:30:56.518Z,2.1
2022-12-28T03:32:04.830Z,2.1
2022-12-28T03:33:13.392Z,2
2022-12-28T03:34:21.744Z,2
2022-12-28T03:35:30.049Z,2
2022-12-28T03:36:38.591Z,1.9
2022-12-28T03:37:46.933Z,1.9
2022-12-28T03:38:55.288Z,1.9
2022-12-28T03:40:03.847Z,2.6
2022-12-28T03:41:12.162Z,2.6
2022-12-28T03:42:20.482Z,2.6
2022-12-28T03:43:29.042Z,2.2
2022-12-28T03:44:37.386Z,2.2
2022-12-28T03:45:47.398Z,2.2
2022-12-28T03:46:54.240Z,2.4
2022-12-28T03:48:02.576Z,2.4
2022-12-28T03:49:10.920Z,2.4
2022-12-28T03:50:19.508Z,2
2022-12-28T03:51:27.820Z,2
2022-12-28T03:52:36.159Z,2
2022-12-28T03:53:44.708Z,2.1
2022-12-28T03:54:53.045Z,2.1
2022-12-28T03:56:01.393Z,2.1
2022-12-28T03:57:09.948Z,2.8
2022-12-28T03:58:18.283Z,2.8
2022-12-28T03:59:26.598Z,2.8
2022-12-28T04:00:35.136Z,2.3
2022-12-28T04:01:43.562Z,2.3
2022-12-28T04:02:51.968Z,2.3
2022-12-28T04:04:00.363Z,2.2
2022-12-28T04:05:08.713Z,2.2
2022-12-28T04:06:17.095Z,2.2
2022-12-28T04:07:25.595Z,2.1
2022-12-28T04:08:33.930Z,2.1
2022-12-28T04:09:42.266Z,2.1
2022-12-28T04:10:50.822Z,1.8
2022-12-28T04:11:59.159Z,1.8
2022-12-28T04:13:07.493Z,1.8
2022-12-28T04:14:16.041Z,2.2
2022-12-28T04:15:24.413Z,2.2
2022-12-28T04:16:32.752Z,2.2
2022-12-28T04:17:41.284Z,2.1
2022-12-28T04:18:49.596Z,2.1
2022-12-28T04:19:57.964Z,2.1
2022-12-28T04:21:06.509Z,1.8
2022-12-28T04:22:14.874Z,1.8
2022-12-28T04:23:23.172Z,1.8
2022-12-28T04:24:31.716Z,2
2022-12-28T04:25:40.082Z,2
2022-12-28T04:26:48.424Z,2
2022-12-28T04:27:56.969Z,2.1
2022-12-28T04:29:05.292Z,2.1
2022-12-28T04:30:13.652Z,2.1
2022-12-28T04:31:22.258Z,2.2
2022-12-28T04:32:30.529Z,2.2
2022-12-28T04:33:38.870Z,2.2
2022-12-28T04:34:48.820Z,1.9
2022-12-28T04:35:55.765Z,1.9
2022-12-28T04:37:04.150Z,1.9
2022-12-28T04:38:12.716Z,1.7
2022-12-28T04:39:21.027Z,1.7
2022-12-28T04:40:29.377Z,1.7
2022-12-28T04:41:37.955Z,1.9
2022-12-28T04:42:46.284Z,1.9
2022-12-28T04:43:54.602Z,1.9
2022-12-28T04:45:03.144Z,2.1
2022-12-28T04:46:11.537Z,2.1
2022-12-28T04:47:19.797Z,2.1
2022-12-28T04:48:28.349Z,2.5
2022-12-28T04:49:36.683Z,2.5
2022-12-28T04:50:45.045Z,2.5
2022-12-28T04:51:53.579Z,2.4
2022-12-28T04:53:01.928Z,2.4
2022-12-28T04:54:10.292Z,2.4
2022-12-28T04:55:31.696Z,2.3
2022-12-28T04:56:27.168Z,2.3
2022-12-28T04:57:35.540Z,2.3
2022-12-28T04:58:44.031Z,2.3
2022-12-28T04:59:52.384Z,2.3
2022-12-28T05:01:00.828Z,2.3
2022-12-28T05:02:09.427Z,2.7
2022-12-28T05:03:17.594Z,2.7
2022-12-28T05:04:25.931Z,2.7
2022-12-28T05:05:34.496Z,2.7
2022-12-28T05:06:42.828Z,2.7
2022-12-28T05:07:51.171Z,2.7
2022-12-28T05:08:59.708Z,2.6
2022-12-28T05:10:08.079Z,2.6
2022-12-28T05:11:16.427Z,2.6
2022-12-28T05:12:24.970Z,3
2022-12-28T05:13:33.330Z,3
2022-12-28T05:14:41.683Z,3
2022-12-28T05:15:50.244Z,2.5
2022-12-28T05:16:58.554Z,2.5
2022-12-28T05:18:06.919Z,2.5
2022-12-28T05:19:15.461Z,2.7
2022-12-28T05:20:23.806Z,2.7
2022-12-28T05:21:32.136Z,2.7
2022-12-28T05:22:41.282Z,2.3
2022-12-28T05:23:48.987Z,2.3
2022-12-28T05:24:57.317Z,2.3
2022-12-28T05:26:05.890Z,2.8
2022-12-28T05:27:14.212Z,2.8
2022-12-28T05:28:22.522Z,2.8
2022-12-28T05:29:31.083Z,2.5
2022-12-28T05:30:39.430Z,2.5
2022-12-28T05:31:47.809Z,2.5
2022-12-28T05:32:56.330Z,2.7
2022-12-28T05:34:04.656Z,2.7
2022-12-28T05:35:12.980Z,2.7
2022-12-28T05:36:21.529Z,2.8
2022-12-28T05:37:29.857Z,2.8
2022-12-28T05:38:38.201Z,2.8
2022-12-28T05:39:46.739Z,2.9
2022-12-28T05:40:55.069Z,2.9
2022-12-28T05:42:03.417Z,2.9
2022-12-28T05:43:11.929Z,2.8
2022-12-28T05:44:20.234Z,2.8
2022-12-28T05:45:28.566Z,2.8
2022-12-28T05:46:37.125Z,2.5
2022-12-28T05:47:45.427Z,2.5
2022-12-28T05:48:53.763Z,2.5
2022-12-28T05:50:02.454Z,2.7
2022-12-28T05:51:10.821Z,2.7
2022-12-28T05:52:19.131Z,2.7
2022-12-28T05:53:27.672Z,2.6
2022-12-28T05:54:36.015Z,2.6
2022-12-28T05:55:44.375Z,2.6
2022-12-28T05:56:52.913Z,2.6
2022-12-28T05:58:01.273Z,2.6
2022-12-28T05:59:09.592Z,2.6
2022-12-28T06:00:18.146Z,2.7
2022-12-28T06:01:26.534Z,2.7
2022-12-28T06:02:34.906Z,2.7
2022-12-28T06:03:43.365Z,2.7
2022-12-28T06:04:51.688Z,2.7
2022-12-28T06:06:00.021Z,2.7
2022-12-28T06:07:08.560Z,2.8
2022-12-28T06:08:21.023Z,2.8
2022-12-28T06:09:25.194Z,2.8
2022-12-28T06:10:33.729Z,2.8
2022-12-28T06:11:42.061Z,2.8
2022-12-28T06:12:50.382Z,2.8
2022-12-28T06:13:58.941Z,2.6
2022-12-28T06:15:07.257Z,2.6
2022-12-28T06:16:15.626Z,2.6
2022-12-28T06:17:24.130Z,2.6
2022-12-28T06:18:32.461Z,2.6
2022-12-28T06:19:40.799Z,2.6
2022-12-28T06:20:53.782Z,2.6
2022-12-28T06:21:57.645Z,2.6
2022-12-28T06:23:05.964Z,2.6
2022-12-28T06:24:14.520Z,2.5
2022-12-28T06:25:22.824Z,2.5
2022-12-28T06:26:31.146Z,2.5
2022-12-28T06:27:39.682Z,8.6
2022-12-28T06:28:48.004Z,8.6
2022-12-28T06:29:56.348Z,8.6
2022-12-28T06:31:04.854Z,20.1
2022-12-28T06:32:13.361Z,20.1
2022-12-28T06:33:21.687Z,20.1
2022-12-28T06:34:30.231Z,7.9
2022-12-28T06:35:38.609Z,7.9
2022-12-28T06:36:46.893Z,7.9
2022-12-28T06:37:55.419Z,18.200001
2022-12-28T06:39:03.732Z,18.200001
2022-12-28T06:40:12.065Z,18.200001
2022-12-28T06:41:20.584Z,14.8
2022-12-28T06:42:28.903Z,14.8
2022-12-28T06:43:37.215Z,14.8
2022-12-28T06:44:45.743Z,182.5
2022-12-28T06:45:54.113Z,182.5
2022-12-28T06:47:02.391Z,182.5
2022-12-28T06:48:10.919Z,30.1
2022-12-28T06:49:19.264Z,30.1
2022-12-28T06:50:27.585Z,30.1
2022-12-28T06:51:36.161Z,13.8
2022-12-28T06:52:44.446Z,13.8
2022-12-28T06:53:52.756Z,13.8
2022-12-28T06:55:01.308Z,9.8
2022-12-28T06:56:09.628Z,9.8
2022-12-28T06:57:17.972Z,9.8
2022-12-28T06:58:26.496Z,3.9
2022-12-28T06:59:34.817Z,3.9
2022-12-28T07:00:43.255Z,3.9
2022-12-28T07:01:51.942Z,10.3
2022-12-28T07:03:00.310Z,10.3
2022-12-28T07:04:08.471Z,10.3
2022-12-28T07:05:17.015Z,4.5
2022-12-28T07:06:25.336Z,4.5
2022-12-28T07:07:33.665Z,4.5
2022-12-28T07:08:42.216Z,8.5
2022-12-28T07:09:50.545Z,8.5
2022-12-28T07:10:58.870Z,8.5
2022-12-28T07:12:07.397Z,4.9
2022-12-28T07:13:15.710Z,4.9
2022-12-28T07:14:24.054Z,4.9
2022-12-28T07:15:32.603Z,4.1
2022-12-28T07:17:41.097Z,4.1
2022-12-28T07:18:49.600Z,14.2
2022-12-28T07:19:57.942Z,14.2
2022-12-28T07:21:06.264Z,14.2
2022-12-28T07:22:14.786Z,34.799999
2022-12-28T07:23:23.099Z,34.799999
2022-12-28T07:24:31.418Z,34.799999
2022-12-28T07:25:40.026Z,37.299999
2022-12-28T07:26:48.344Z,37.299999
2022-12-28T07:27:56.790Z,37.299999
2022-12-28T07:29:05.415Z,33.700001
2022-12-28T07:30:13.781Z,33.700001
2022-12-28T07:31:22.279Z,33.700001
2022-12-28T07:32:30.777Z,23.299999
2022-12-28T07:33:39.151Z,23.299999
2022-12-28T07:34:47.515Z,23.299999
2022-12-28T07:35:56.083Z,33.299999
2022-12-28T07:37:04.431Z,33.299999
2022-12-28T07:38:16.582Z,33.299999
2022-12-28T07:39:21.335Z,31.200001
2022-12-28T07:40:29.645Z,31.200001
2022-12-28T07:41:38.008Z,31.200001
2022-12-28T07:42:46.694Z,17.1
2022-12-28T07:43:55.095Z,17.1
2022-12-28T07:45:03.453Z,17.1
2022-12-28T07:46:12.088Z,5.9
2022-12-28T07:47:20.496Z,5.9
2022-12-28T07:48:28.864Z,5.9
2022-12-28T07:49:37.484Z,7.2
2022-12-28T07:50:45.811Z,7.2
2022-12-28T07:51:54.186Z,7.2
2022-12-28T07:53:02.729Z,3.7
2022-12-28T07:54:11.060Z,3.7
2022-12-28T07:55:19.454Z,3.7
2022-12-28T07:56:28.009Z,6.6
2022-12-28T07:57:35.247Z,6.6
2022-12-28T07:59:43.955Z,13.7
2022-12-28T08:00:52.289Z,13.7
2022-12-28T08:02:00.718Z,13.7
2022-12-28T08:03:09.283Z,5.6
2022-12-28T08:04:17.581Z,5.6
2022-12-28T08:05:25.946Z,5.6
2022-12-28T08:06:34.446Z,5.7
2022-12-28T08:07:42.756Z,5.7
2022-12-28T08:08:51.117Z,5.7
2022-12-28T08:09:59.690Z,3.5
2022-12-28T08:11:08.119Z,3.5
2022-12-28T08:12:16.435Z,3.5
2022-12-28T08:13:24.970Z,4.4
2022-12-28T08:14:33.296Z,4.4
2022-12-28T08:15:41.634Z,4.4
2022-12-28T08:16:50.162Z,2.8
2022-12-28T08:17:58.497Z,2.8
2022-12-28T08:19:06.842Z,2.8
2022-12-28T08:20:15.382Z,2.7
2022-12-28T08:21:23.853Z,2.7
2022-12-28T08:22:32.198Z,2.7
2022-12-28T08:23:40.888Z,4.1
2022-12-28T08:24:49.305Z,4.1
2022-12-28T08:25:57.644Z,4.1
2022-12-28T08:27:06.197Z,2.5
2022-12-28T08:28:14.566Z,2.5
2022-12-28T08:29:22.935Z,2.5
2022-12-28T08:30:31.571Z,4.1
2022-12-28T08:31:39.914Z,4.1
2022-12-28T08:32:48.270Z,4.1
2022-12-28T08:33:56.832Z,3.1
2022-12-28T08:35:05.198Z,3.1
2022-12-28T08:36:13.565Z,3.1
2022-12-28T08:37:22.138Z,2.8
2022-12-28T08:38:30.468Z,2.8
2022-12-28T08:39:38.825Z,2.8
2022-12-28T08:40:47.437Z,2.9
2022-12-28T08:41:55.688Z,2.9
2022-12-28T08:43:04.022Z,2.9
2022-12-28T08:44:12.552Z,2.2
2022-12-28T08:45:20.928Z,2.2
2022-12-28T08:46:29.370Z,2.2
2022-12-28T08:47:37.823Z,3
2022-12-28T08:48:46.156Z,3
2022-12-28T08:49:54.520Z,3
2022-12-28T08:51:03.061Z,5.7
2022-12-28T08:52:11.424Z,5.7
2022-12-28T08:53:19.806Z,5.7
2022-12-28T08:54:28.315Z,5.8
2022-12-28T08:55:36.669Z,5.8
2022-12-28T08:56:45.024Z,5.8
2022-12-28T08:57:53.577Z,3.3
2022-12-28T08:59:01.998Z,3.3
2022-12-28T09:00:10.381Z,3.3
2022-12-28T09:01:19.052Z,2.5
2022-12-28T09:02:27.841Z,2.5
2022-12-28T09:03:36.085Z,2.5
2022-12-28T09:04:44.765Z,2.8
2022-12-28T09:05:54.676Z,2.8
2022-12-28T09:07:01.449Z,2.8
2022-12-28T09:08:10.030Z,2.6
2022-12-28T09:09:18.372Z,2.6
2022-12-28T09:10:26.725Z,2.6
2022-12-28T09:11:35.283Z,3.1
2022-12-28T09:12:43.687Z,3.1
2022-12-28T09:13:52.071Z,3.1
2022-12-28T09:15:00.693Z,2.6
2022-12-28T09:16:09.095Z,2.6
2022-12-28T09:17:17.403Z,2.6
2022-12-28T09:18:25.950Z,2
2022-12-28T09:19:34.306Z,2
2022-12-28T09:20:47.628Z,2
2022-12-28T09:21:51.256Z,3.6
2022-12-28T09:22:59.649Z,3.6
2022-12-28T09:24:08.007Z,3.6
2022-12-28T09:25:16.611Z,2.4
2022-12-28T09:26:24.935Z,2.4
2022-12-28T09:27:33.269Z,2.4
2022-12-28T09:28:41.833Z,2.8
2022-12-28T09:29:50.200Z,2.8
2022-12-28T09:30:58.569Z,2.8
2022-12-28T09:32:07.136Z,2.8
2022-12-28T09:33:15.500Z,2.8
2022-12-28T09:34:39.369Z,2.8
2022-12-28T09:35:32.436Z,2.2
2022-12-28T09:36:40.793Z,2.2
2022-12-28T09:37:49.129Z,2.2
2022-12-28T09:38:57.716Z,2.6
2022-12-28T09:40:06.182Z,2.6
2022-12-28T09:41:14.544Z,2.6
2022-12-28T09:42:23.139Z,1.9
2022-12-28T09:43:31.475Z,1.9
2022-12-28T09:44:39.807Z,1.9
2022-12-28T09:45:48.364Z,2.1
2022-12-28T09:46:56.769Z,2.1
2022-12-28T09:48:04.998Z,2.1
2022-12-28T09:49:13.538Z,2.4
2022-12-28T09:50:21.862Z,2.4
2022-12-28T09:51:30.199Z,2.4
2022-12-28T09:52:38.716Z,2.4
2022-12-28T09:53:47.046Z,2.4
2022-12-28T09:54:55.392Z,2.4
2022-12-28T09:56:03.915Z,2.1
2022-12-28T09:57:12.279Z,2.1
2022-12-28T09:58:20.587Z,2.1
2022-12-28T09:59:29.142Z,3.3
2022-12-28T10:00:37.477Z,3.3
2022-12-28T10:01:45.897Z,3.3
2022-12-28T10:02:54.345Z,2.3
2022-12-28T10:04:02.685Z,2.3
2022-12-28T10:05:11.002Z,2.3
2022-12-28T10:06:19.536Z,2
2022-12-28T10:07:27.882Z,2
2022-12-28T10:08:36.233Z,2
2022-12-28T10:09:44.783Z,2.7
2022-12-28T10:10:53.126Z,2.7
2022-12-28T10:12:01.459Z,2.7
2022-12-28T10:13:29.525Z,2.1
2022-12-28T10:14:18.348Z,2.1
2022-12-28T10:15:26.707Z,2.1
2022-12-28T10:16:35.794Z,2.1
2022-12-28T10:17:44.085Z,2.1
2022-12-28T10:18:52.428Z,2.1
2022-12-28T10:20:00.994Z,1.5
2022-12-28T10:21:09.332Z,1.5
2022-12-28T10:22:17.651Z,1.5
2022-12-28T10:23:26.197Z,2
2022-12-28T10:24:34.512Z,2
2022-12-28T10:25:42.840Z,2
2022-12-28T10:26:51.381Z,1.9
2022-12-28T10:27:59.705Z,1.9
2022-12-28T10:29:08.051Z,1.9
2022-12-28T10:30:16.573Z,1.9
2022-12-28T10:31:24.964Z,1.9
2022-12-28T10:32:33.288Z,1.9
2022-12-28T10:33:41.844Z,1.8
2022-12-28T10:34:50.200Z,1.8
2022-12-28T10:35:58.542Z,1.8
2022-12-28T10:37:07.082Z,1.5
2022-12-28T10:38:15.521Z,1.5
2022-12-28T10:39:23.964Z,1.5
2022-12-28T10:40:32.565Z,1.6
2022-12-28T10:41:40.901Z,1.6
2022-12-28T10:42:49.253Z,1.6
2022-12-28T10:44:21.786Z,1.8
2022-12-28T10:45:06.273Z,1.8
2022-12-28T10:46:14.533Z,1.8
2022-12-28T10:47:23.135Z,2.4
2022-12-28T10:48:31.902Z,2.4
2022-12-28T10:49:40.314Z,2.4
2022-12-28T10:50:48.770Z,1.8
2022-12-28T10:51:57.106Z,1.8
2022-12-28T10:53:05.457Z,1.8
2022-12-28T10:54:14.018Z,2.1
2022-12-28T10:55:22.378Z,2.1
2022-12-28T10:56:30.760Z,2.1
2022-12-28T10:57:55.917Z,2
2022-12-28T10:58:47.848Z,2
2022-12-28T10:59:56.207Z,2
2022-12-28T11:01:05.011Z,1.8
2022-12-28T11:02:13.436Z,1.8
2022-12-28T11:03:21.554Z,1.8
2022-12-28T11:04:30.049Z,1.6
2022-12-28T11:05:38.442Z,1.6
2022-12-28T11:06:46.781Z,1.6
2022-12-28T11:07:55.455Z,1.7
2022-12-28T11:09:03.847Z,1.7
2022-12-28T11:10:12.173Z,1.7
2022-12-28T11:11:20.740Z,1.6
2022-12-28T11:12:29.098Z,1.6
2022-12-28T11:13:37.442Z,1.6
2022-12-28T11:14:46.012Z,1.8
2022-12-28T11:15:54.442Z,1.8
2022-12-28T11:17:02.696Z,1.8
2022-12-28T11:18:11.283Z,1.5
2022-12-28T11:19:19.649Z,1.5
2022-12-28T11:20:27.971Z,1.5
2022-12-28T11:21:36.489Z,1.4
2022-12-28T11:22:44.813Z,1.4
2022-12-28T11:23:53.172Z,1.4
2022-12-28T11:25:01.718Z,1.8
2022-12-28T11:26:10.205Z,1.8
2022-12-28T11:27:18.571Z,1.8
2022-12-28T11:28:27.124Z,1.6
2022-12-28T11:29:35.530Z,1.6
2022-12-28T11:30:43.875Z,1.6
2022-12-28T11:31:52.501Z,1.5
2022-12-28T11:33:00.790Z,1.5
2022-12-28T11:34:09.091Z,1.5
2022-12-28T11:35:17.675Z,1.8
2022-12-28T11:36:26.028Z,1.8
2022-12-28T11:37:34.375Z,1.8
2022-12-28T11:38:42.980Z,1.8
2022-12-28T11:39:51.358Z,1.8
2022-12-28T11:40:59.728Z,1.8
2022-12-28T11:42:37.637Z,1.6
2022-12-28T11:43:16.621Z,1.6
2022-12-28T11:44:24.966Z,1.6
2022-12-28T11:45:33.612Z,2.2
2022-12-28T11:46:41.928Z,2.2
2022-12-28T11:47:50.281Z,2.2
2022-12-28T11:48:58.898Z,1.6
2022-12-28T11:50:07.216Z,1.6
2022-12-28T11:51:15.562Z,1.6
2022-12-28T11:52:24.113Z,1.9
2022-12-28T11:53:32.452Z,1.9
2022-12-28T11:54:40.787Z,1.9
2022-12-28T11:55:49.374Z,1.5
2022-12-28T11:56:57.770Z,1.5
2022-12-28T11:58:06.144Z,1.5
2022-12-28T11:59:14.784Z,1.8
2022-12-28T12:00:23.694Z,1.8
2022-12-28T12:01:31.712Z,1.8
2022-12-28T12:02:40.265Z,2
2022-12-28T12:03:48.830Z,2
2022-12-28T12:04:57.249Z,2
2022-12-28T12:06:05.792Z,1.9
2022-12-28T12:07:14.091Z,1.9
2022-12-28T12:08:22.559Z,1.9
2022-12-28T12:09:31.111Z,1.8
2022-12-28T12:10:39.576Z,1.8
2022-12-28T12:11:48.004Z,1.8
2022-12-28T12:12:56.585Z,1.6
2022-12-28T12:14:05.013Z,1.6
2022-12-28T12:15:13.407Z,1.6
2022-12-28T12:16:22.183Z,1.6
2022-12-28T12:17:30.480Z,1.6
2022-12-28T12:18:38.916Z,1.6
2022-12-28T12:19:47.477Z,1.8
2022-12-28T12:20:55.890Z,1.8
2022-12-28T12:22:04.211Z,1.8
2022-12-28T12:23:12.768Z,2.1
2022-12-28T12:24:21.143Z,2.1
2022-12-28T12:25:29.515Z,2.1
2022-12-28T12:26:38.061Z,2.4
2022-12-28T12:27:46.494Z,2.4
2022-12-28T12:28:54.851Z,2.4
2022-12-28T12:30:03.410Z,3.7
2022-12-28T12:31:11.811Z,3.7
2022-12-28T12:32:20.099Z,3.7
2022-12-28T12:33:28.854Z,2.8
2022-12-28T12:34:37.260Z,2.8
2022-12-28T12:35:45.636Z,2.8
2022-12-28T12:36:54.342Z,2.3
2022-12-28T12:38:02.646Z,2.3
2022-12-28T12:39:10.994Z,2.3
2022-12-28T12:40:19.598Z,1.8
2022-12-28T12:41:27.969Z,1.8
2022-12-28T12:42:36.367Z,1.8
2022-12-28T12:43:45.129Z,1.9
2022-12-28T12:44:53.430Z,1.9
2022-12-28T12:46:01.825Z,1.9
2022-12-28T12:47:10.356Z,1.6
2022-12-28T12:48:18.707Z,1.6
2022-12-28T12:49:27.064Z,1.6
2022-12-28T12:50:35.641Z,1.5
2022-12-28T12:51:44.006Z,1.5
2022-12-28T12:52:52.393Z,1.5
2022-12-28T12:54:00.911Z,1.8
2022-12-28T12:55:09.306Z,1.8
2022-12-28T12:56:17.654Z,1.8
2022-12-28T12:57:26.215Z,1.7
2022-12-28T12:58:34.558Z,1.7
2022-12-28T12:59:42.923Z,1.7
2022-12-28T13:00:51.473Z,1.7
2022-12-28T13:01:59.915Z,1.7
2022-12-28T13:03:08.241Z,1.7
2022-12-28T13:04:16.759Z,1.7
2022-12-28T13:05:25.126Z,1.7
2022-12-28T13:06:33.476Z,1.7
2022-12-28T13:07:42.012Z,1.8
2022-12-28T13:08:50.393Z,1.8
2022-12-28T13:09:58.727Z,1.8
2022-12-28T13:11:07.278Z,1.7
2022-12-28T13:12:15.621Z,1.7
2022-12-28T13:13:23.972Z,1.7
2022-12-28T13:14:32.521Z,1.5
2022-12-28T13:15:40.894Z,1.5
2022-12-28T13:16:49.226Z,1.5
2022-12-28T13:18:05.024Z,1.9
2022-12-28T13:19:06.169Z,1.9
2022-12-28T13:20:14.535Z,1.9
2022-12-28T13:21:23.087Z,2.4
2022-12-28T13:22:31.420Z,2.4
2022-12-28T13:23:39.813Z,2.4
2022-12-28T13:24:48.447Z,2
2022-12-28T13:25:56.781Z,2
2022-12-28T13:27:09.103Z,2
2022-12-28T13:28:13.661Z,2.2
2022-12-28T13:29:22.017Z,2.2
2022-12-28T13:30:30.400Z,2.2
2022-12-28T13:31:38.918Z,2.3
2022-12-28T13:32:47.272Z,2.3
2022-12-28T13:33:55.626Z,2.3
2022-12-28T13:35:04.198Z,1.7
2022-12-28T13:36:12.553Z,1.7
2022-12-28T13:37:20.943Z,1.7
2022-12-28T13:38:29.482Z,1.5
2022-12-28T13:39:41.982Z,1.5
2022-12-28T13:40:46.232Z,1.5
2022-12-28T13:41:54.818Z,1.6
2022-12-28T13:43:03.141Z,1.6
2022-12-28T13:44:11.506Z,1.6
2022-12-28T13:45:20.070Z,1.9
2022-12-28T13:46:28.440Z,1.9
2022-12-28T13:47:36.758Z,1.9
2022-12-28T13:48:45.353Z,1.8
2022-12-28T13:49:53.701Z,1.8
2022-12-28T13:51:02.073Z,1.8
2022-12-28T13:52:10.699Z,1.8
2022-12-28T13:53:19.050Z,1.8
2022-12-28T13:54:27.390Z,1.8
2022-12-28T13:55:35.969Z,1.7
2022-12-28T13:56:44.388Z,1.7
2022-12-28T13:57:57.508Z,1.7
2022-12-28T13:59:01.252Z,1.8
2022-12-28T14:00:09.696Z,1.8
2022-12-28T14:01:18.040Z,1.8
2022-12-28T14:02:26.529Z,1.8
2022-12-28T14:03:39.438Z,1.8
2022-12-28T14:04:52.069Z,1.8
2022-12-28T14:05:51.746Z,1.6
2022-12-28T14:06:59.996Z,1.6
2022-12-28T14:08:08.310Z,1.6
2022-12-28T14:09:16.875Z,2.6
2022-12-28T14:10:25.207Z,2.6
2022-12-28T14:11:33.790Z,2.6
2022-12-28T14:12:42.386Z,2.2
2022-12-28T14:13:50.720Z,2.2
2022-12-28T14:14:59.079Z,2.2
2022-12-28T14:16:07.704Z,2
2022-12-28T14:17:15.986Z,2
2022-12-28T14:18:24.389Z,2
2022-12-28T14:19:32.973Z,2
2022-12-28T14:20:41.340Z,2
2022-12-28T14:21:49.688Z,2
2022-12-28T14:22:58.315Z,2
2022-12-28T14:24:06.643Z,2
2022-12-28T14:25:15.009Z,2
2022-12-28T14:26:23.569Z,1.5
2022-12-28T14:27:32.204Z,1.5
2022-12-28T14:28:40.260Z,1.5
2022-12-28T14:29:48.808Z,1.4
2022-12-28T14:30:57.272Z,1.4
2022-12-28T15:03:28.074Z,0
2022-12-28T15:04:36.309Z,0
2022-12-28T15:05:44.654Z,0
2022-12-28T15:06:53.175Z,1.6
2022-12-28T15:08:01.535Z,1.6
2022-12-28T15:09:09.851Z,1.6
2022-12-28T15:10:18.396Z,2.2
2022-12-28T15:11:26.729Z,2.2
2022-12-28T15:12:35.049Z,2.2
2022-12-28T15:13:43.583Z,2.3
2022-12-28T15:14:51.961Z,2.3
2022-12-28T15:16:00.383Z,2.3
2022-12-28T15:17:08.809Z,2.2
2022-12-28T15:18:17.108Z,2.2
2022-12-28T15:19:25.442Z,2.2
2022-12-28T15:20:34.065Z,3
2022-12-28T15:21:42.317Z,3
2022-12-28T15:22:50.579Z,3
2022-12-28T15:23:59.146Z,5.2
2022-12-28T15:25:07.488Z,5.2
2022-12-28T15:26:15.819Z,5.2
2022-12-28T15:27:24.334Z,4.8
2022-12-28T15:28:32.669Z,4.8
2022-12-28T15:30:04.785Z,4.8
2022-12-28T15:30:49.513Z,4.1
2022-12-28T15:31:57.976Z,4.1
2022-12-28T15:33:06.699Z,4.1
2022-12-28T15:34:15.217Z,1.9
2022-12-28T15:35:23.614Z,1.9
2022-12-28T15:36:31.893Z,1.9
2022-12-28T15:37:40.425Z,1.6
2022-12-28T15:38:49.125Z,1.6
2022-12-28T15:39:57.663Z,1.6
2022-12-28T15:41:06.207Z,2.6
2022-12-28T15:42:14.602Z,2.6
2022-12-28T15:43:22.928Z,2.6
2022-12-28T15:44:31.513Z,1.8
2022-12-28T15:45:39.909Z,1.8
2022-12-28T15:46:48.301Z,1.8
2022-12-28T15:47:56.827Z,2.8
2022-12-28T15:49:05.184Z,2.8
2022-12-28T15:50:13.770Z,2.8
2022-12-28T15:51:22.500Z,2.5
2022-12-28T15:52:30.960Z,2.5
2022-12-28T15:53:39.315Z,2.5
2022-12-28T15:54:47.864Z,1.9
2022-12-28T15:55:56.224Z,1.9
2022-12-28T15:57:04.791Z,1.9
2022-12-28T15:58:13.368Z,2
2022-12-28T15:59:21.711Z,2
2022-12-28T16:00:30.101Z,2
2022-12-28T16:01:38.894Z,2.2
2022-12-28T16:02:47.385Z,2.2
2022-12-28T16:03:55.650Z,2.2
2022-12-28T16:05:04.540Z,2.3
2022-12-28T16:06:13.510Z,2.3
2022-12-28T16:07:21.884Z,2.3
2022-12-28T16:08:30.413Z,3.7
2022-12-28T16:09:38.754Z,3.7
2022-12-28T16:10:47.105Z,3.7
2022-12-28T16:11:56.088Z,3.3
2022-12-28T16:13:04.501Z,3.3
2022-12-28T16:14:12.878Z,3.3
2022-12-28T16:15:21.488Z,8.3